Darstellungsparameter: Aktuell verwendete Einstellungen:
Skalierung der Graphiken ... ?
xyx+y,   Skalierungsfaktor:      Skalierung: Modus: x, Faktor: 1
Darstellungszeitraum ... ?
Vom - - bis: - -   Zeitraum: 05.03.2021 - 05.03.2021
Min/Max/Avg-Anzeige ... ?
Zeige MMA aktuell
Zeige MMA Monat
Zeige MMA alles
Zeige --A aktuell
Zeige --A Monat
Zeige --A alles
Keine MMA-Anzeige
MMA:
Keine MMA-Graphiken
MMA-Basis: 05.03.2021 - 05.03.2021
Quicknavigation für Darstellung... ?
Tage:      1T, 2T, 3T, 5T -1T -2T -3T -5T +1T +2T +3T +5T
Wochen: 1W, 2W, 3W -1W -2W -3W +1W +2W +3W
Monate: 1M, 3M, 6M -1M -3M -6M +1M +3M +6M
Jahre:    1J, 3J, 5J, 10J -1J -3J -5J -10J +1J +3J +5J +10J
Nutze für die Darstellung ... ?
Originaldaten oder Mittelwerte auf ...
Stundenbasis Tagesbasis Wochenbasis
Monatsbasis Jahresbasis      Datenbasis: Original-Daten
Darstellen als:
Statistik (Auto) Statistik J:M      Darstellung:

Der gewünschte Datumsbereich war nicht gültig/verfügbar und wurde korrigiert....
Das angegebene Enddatum (17.08.2029 23:59:59) liegt in der Zukunft.
Das angegebene Startdatum (17.08.2029 00:00:00) liegt in der Zukunft.


Zur Graphik,    zurück zur Übersicht aller Sensoren.
 
Tabellarische Datenbersicht: ?
 
Sensor: Nr:Datum:Temp:Feuchte:Taupunkt:
Aussen-T/F 1 05-03-2021 01:00:00 4.1 C 94 % 3.22 C
2 05-03-2021 01:05:00 4.1 C 94 % 3.22 C
3 05-03-2021 01:10:00 4.1 C 94 % 3.22 C
4 05-03-2021 01:15:00 4.1 C 94 % 3.22 C
5 05-03-2021 01:20:00 4.1 C 94 % 3.22 C
6 05-03-2021 01:25:00 4.1 C 94 % 3.22 C
7 05-03-2021 01:30:00 4.1 C 94 % 3.22 C
8 05-03-2021 01:35:00 4.1 C 94 % 3.22 C
9 05-03-2021 01:40:00 4.1 C 94 % 3.22 C
10 05-03-2021 01:45:00 4.1 C 94 % 3.22 C
11 05-03-2021 01:50:00 4.1 C 94 % 3.22 C
12 05-03-2021 01:55:00 4.1 C 94 % 3.22 C
13 05-03-2021 02:00:00 4.1 C 94 % 3.22 C
14 05-03-2021 02:05:00 4.2 C 94 % 3.32 C
15 05-03-2021 02:10:00 4.2 C 94 % 3.32 C
16 05-03-2021 02:15:00 4.2 C 94 % 3.32 C
17 05-03-2021 02:20:00 4.2 C 94 % 3.32 C
18 05-03-2021 02:25:00 4.2 C 94 % 3.32 C
19 05-03-2021 02:30:00 4.2 C 94 % 3.32 C
20 05-03-2021 02:35:00 4.2 C 93 % 3.17 C
21 05-03-2021 02:40:00 4.1 C 92 % 2.92 C
22 05-03-2021 02:45:00 4.1 C 92 % 2.92 C
23 05-03-2021 02:50:00 4.1 C 92 % 2.92 C
24 05-03-2021 02:55:00 4.1 C 91 % 2.77 C
25 05-03-2021 03:00:00 4.1 C 91 % 2.77 C
Sensor: Nr:Datum:Temp:Feuchte:Taupunkt:
Aussen-T/F 26 05-03-2021 03:05:00 4.1 C 90 % 2.61 C
27 05-03-2021 03:10:00 4.1 C 90 % 2.61 C
28 05-03-2021 03:15:00 4.1 C 90 % 2.61 C
29 05-03-2021 03:20:00 4.1 C 91 % 2.77 C
30 05-03-2021 03:25:00 4 C 90 % 2.51 C
31 05-03-2021 03:30:00 3.9 C 90 % 2.41 C
32 05-03-2021 03:35:00 3.9 C 90 % 2.41 C
33 05-03-2021 03:40:00 3.9 C 90 % 2.41 C
34 05-03-2021 03:45:00 3.8 C 89 % 2.16 C
35 05-03-2021 03:50:00 3.8 C 89 % 2.16 C
36 05-03-2021 03:55:00 3.8 C 89 % 2.16 C
37 05-03-2021 04:00:00 3.8 C 89 % 2.16 C
38 05-03-2021 04:05:00 3.7 C 89 % 2.06 C
39 05-03-2021 04:10:00 3.7 C 88 % 1.9 C
40 05-03-2021 04:15:00 3.7 C 88 % 1.9 C
41 05-03-2021 04:20:00 3.7 C 88 % 1.9 C
42 05-03-2021 04:25:00 3.6 C 88 % 1.8 C
43 05-03-2021 04:30:00 3.6 C 87 % 1.64 C
44 05-03-2021 04:35:00 3.6 C 87 % 1.64 C
45 05-03-2021 04:40:00 3.6 C 87 % 1.64 C
46 05-03-2021 04:45:00 3.5 C 87 % 1.55 C
47 05-03-2021 04:50:00 3.5 C 88 % 1.7 C
48 05-03-2021 04:55:00 3.5 C 87 % 1.55 C
49 05-03-2021 05:00:00 3.4 C 87 % 1.45 C
50 05-03-2021 05:05:00 3.4 C 87 % 1.45 C
Sensor: Nr:Datum:Temp:Feuchte:Taupunkt:
Aussen-T/F 51 05-03-2021 05:10:00 3.3 C 87 % 1.35 C
52 05-03-2021 05:15:00 3.3 C 88 % 1.51 C
53 05-03-2021 05:20:00 3.3 C 88 % 1.51 C
54 05-03-2021 05:25:00 3.3 C 88 % 1.51 C
55 05-03-2021 05:30:00 3.2 C 89 % 1.57 C
56 05-03-2021 05:35:00 3.2 C 89 % 1.57 C
57 05-03-2021 05:40:00 3.2 C 89 % 1.57 C
58 05-03-2021 05:45:00 3.2 C 89 % 1.57 C
59 05-03-2021 05:50:00 3.1 C 89 % 1.47 C
60 05-03-2021 05:55:00 3.1 C 89 % 1.47 C
61 05-03-2021 06:00:00 3.1 C 90 % 1.62 C
62 05-03-2021 06:05:00 3.1 C 90 % 1.62 C
63 05-03-2021 06:10:00 3.1 C 90 % 1.62 C
64 05-03-2021 06:15:00 3.1 C 90 % 1.62 C
65 05-03-2021 06:20:00 3.1 C 90 % 1.62 C
66 05-03-2021 06:25:00 3.1 C 90 % 1.62 C
67 05-03-2021 06:30:00 3.1 C 90 % 1.62 C
68 05-03-2021 06:35:00 3.1 C 90 % 1.62 C
69 05-03-2021 06:40:00 3.1 C 90 % 1.62 C
70 05-03-2021 06:45:00 3.1 C 90 % 1.62 C
71 05-03-2021 06:50:00 3.1 C 90 % 1.62 C
72 05-03-2021 06:55:00 3.2 C 90 % 1.72 C
73 05-03-2021 07:00:00 3.2 C 90 % 1.72 C
74 05-03-2021 07:05:00 3.2 C 90 % 1.72 C
75 05-03-2021 07:10:00 3.2 C 90 % 1.72 C
Sensor: Nr:Datum:Temp:Feuchte:Taupunkt:
Aussen-T/F 76 05-03-2021 07:15:00 3.2 C 90 % 1.72 C
77 05-03-2021 07:20:00 3.2 C 90 % 1.72 C
78 05-03-2021 07:25:00 3.2 C 90 % 1.72 C
79 05-03-2021 07:30:00 3.2 C 90 % 1.72 C
80 05-03-2021 07:35:00 3.2 C 90 % 1.72 C
81 05-03-2021 07:40:00 3.2 C 91 % 1.88 C
82 05-03-2021 07:45:00 3.2 C 91 % 1.88 C
83 05-03-2021 07:50:00 3.2 C 91 % 1.88 C
84 05-03-2021 07:55:00 3.2 C 91 % 1.88 C
85 05-03-2021 08:00:00 3.2 C 91 % 1.88 C
86 05-03-2021 08:05:00 3.3 C 91 % 1.98 C
87 05-03-2021 08:10:00 3.3 C 91 % 1.98 C
88 05-03-2021 08:15:00 3.3 C 91 % 1.98 C
89 05-03-2021 08:20:00 3.3 C 91 % 1.98 C
90 05-03-2021 08:25:00 3.3 C 91 % 1.98 C
91 05-03-2021 08:30:00 3.4 C 91 % 2.07 C
92 05-03-2021 08:35:00 3.4 C 91 % 2.07 C
93 05-03-2021 08:40:00 3.4 C 91 % 2.07 C
94 05-03-2021 08:45:00 3.5 C 91 % 2.17 C
95 05-03-2021 08:50:00 3.6 C 91 % 2.27 C
96 05-03-2021 08:55:00 3.6 C 90 % 2.12 C
97 05-03-2021 09:00:00 3.7 C 90 % 2.22 C
98 05-03-2021 09:05:00 3.7 C 90 % 2.22 C
99 05-03-2021 09:10:00 3.8 C 90 % 2.31 C
100 05-03-2021 09:15:00 3.8 C 90 % 2.31 C
Sensor: Nr:Datum:Temp:Feuchte:Taupunkt:
Aussen-T/F 101 05-03-2021 09:20:00 3.9 C 89 % 2.26 C
102 05-03-2021 09:25:00 3.9 C 89 % 2.26 C
103 05-03-2021 09:30:00 3.9 C 88 % 2.1 C
104 05-03-2021 09:35:00 4 C 86 % 1.88 C
105 05-03-2021 09:40:00 4.1 C 86 % 1.97 C
106 05-03-2021 09:45:00 4.2 C 86 % 2.07 C
107 05-03-2021 09:50:00 4.2 C 85 % 1.91 C
108 05-03-2021 09:55:00 4.3 C 85 % 2.01 C
109 05-03-2021 10:00:00 4.4 C 85 % 2.11 C
110 05-03-2021 10:05:00 4.4 C 84 % 1.94 C
111 05-03-2021 10:10:00 4.4 C 82 % 1.6 C
112 05-03-2021 10:15:00 4.4 C 83 % 1.77 C
113 05-03-2021 10:20:00 4.5 C 82 % 1.7 C
114 05-03-2021 10:25:00 4.5 C 82 % 1.7 C
115 05-03-2021 10:30:00 4.6 C 81 % 1.63 C
116 05-03-2021 10:35:00 4.6 C 81 % 1.63 C
117 05-03-2021 10:40:00 4.6 C 80 % 1.46 C
118 05-03-2021 10:45:00 4.6 C 79 % 1.28 C
119 05-03-2021 10:50:00 4.7 C 79 % 1.38 C
120 05-03-2021 10:55:00 4.8 C 78 % 1.3 C

Legende:
   Min
   Max


Maximal/Minimal-Werte vom 05.03.2021 - 05.03.2021

Sensor Min Max Avg
Temp
(Aussen-T/F)
3.1 °C
05-03-2021  05:50:00
4.8 °C
05-03-2021  10:55:00
3.73 °C
Feuchte
(Aussen-T/F)
78 %
05-03-2021  10:55:00
94 %
05-03-2021  01:00:00
89.35 %
Taupunkt
(Aussen-T/F)
1.28 C
05-03-2021  10:45:00
3.32 C
05-03-2021  02:05:00
2.11 C

Die Daten stammen von einer Davis Vantage Pro 2 Wetter-Station und werden unter Linux mit der Software wview2wettercgi und aufbereitet. Alle Angaben erfolgen ohne Gewähr für ihre Vollständigkeit oder Richtigkeit.
Kontakt: Rainer Krienke krienke@uni-koblenz.de . Meine Webseiten an der Uni Koblenz oder privat.
Version: $Revision: 0.78 $